sensor_id;sensor_type;location;lat;lon;timestamp;pressure;altitude;pressure_sealevel;temperature;humidity
77086;BME280;66014;53.134;18.006;2023-06-22T00:01:23;101260.58;;;21.21;69.56
77086;BME280;66014;53.134;18.006;2023-06-22T00:03:51;101263.57;;;21.22;69.52
77086;BME280;66014;53.134;18.006;2023-06-22T00:06:20;101266.92;;;21.22;69.55
77086;BME280;66014;53.134;18.006;2023-06-22T00:08:47;101273.64;;;21.22;69.56
77086;BME280;66014;53.134;18.006;2023-06-22T00:11:13;101276.46;;;21.20;69.58
77086;BME280;66014;53.134;18.006;2023-06-22T00:13:40;101278.34;;;21.20;69.55
77086;BME280;66014;53.134;18.006;2023-06-22T00:16:06;101279.50;;;21.18;69.67
77086;BME280;66014;53.134;18.006;2023-06-22T00:18:33;101282.48;;;21.16;69.61
77086;BME280;66014;53.134;18.006;2023-06-22T00:20:59;101280.40;;;21.15;69.67
77086;BME280;66014;53.134;18.006;2023-06-22T00:23:26;101282.36;;;21.16;69.69
77086;BME280;66014;53.134;18.006;2023-06-22T00:25:53;101280.06;;;21.15;69.73
77086;BME280;66014;53.134;18.006;2023-06-22T00:28:19;101279.77;;;21.16;69.66
77086;BME280;66014;53.134;18.006;2023-06-22T00:30:54;101282.77;;;21.17;69.82
77086;BME280;66014;53.134;18.006;2023-06-22T00:33:20;101291.57;;;21.16;69.83
77086;BME280;66014;53.134;18.006;2023-06-22T00:35:47;101288.56;;;21.13;69.87
77086;BME280;66014;53.134;18.006;2023-06-22T00:38:13;101292.34;;;21.14;69.86
77086;BME280;66014;53.134;18.006;2023-06-22T00:40:40;101294.03;;;21.13;69.88
77086;BME280;66014;53.134;18.006;2023-06-22T00:43:06;101295.89;;;21.13;69.77
77086;BME280;66014;53.134;18.006;2023-06-22T00:45:33;101298.92;;;21.14;69.83
77086;BME280;66014;53.134;18.006;2023-06-22T00:48:00;101297.81;;;21.16;69.80
77086;BME280;66014;53.134;18.006;2023-06-22T00:50:29;101297.94;;;21.17;69.91
77086;BME280;66014;53.134;18.006;2023-06-22T00:53:03;101294.30;;;21.19;69.88
77086;BME280;66014;53.134;18.006;2023-06-22T00:55:41;101294.73;;;21.21;69.83
77086;BME280;66014;53.134;18.006;2023-06-22T00:58:18;101293.68;;;21.21;69.94
77086;BME280;66014;53.134;18.006;2023-06-22T01:00:48;101297.67;;;21.22;69.78
77086;BME280;66014;53.134;18.006;2023-06-22T01:03:15;101296.35;;;21.21;69.86
77086;BME280;66014;53.134;18.006;2023-06-22T01:05:43;101299.55;;;21.19;69.79
77086;BME280;66014;53.134;18.006;2023-06-22T01:08:38;101296.84;;;21.16;69.88
77086;BME280;66014;53.134;18.006;2023-06-22T01:11:16;101297.36;;;21.14;70.00
77086;BME280;66014;53.134;18.006;2023-06-22T01:16:31;101306.40;;;21.06;70.05
77086;BME280;66014;53.134;18.006;2023-06-22T01:19:03;101305.50;;;21.02;70.15
77086;BME280;66014;53.134;18.006;2023-06-22T01:21:36;101302.63;;;20.99;70.10
77086;BME280;66014;53.134;18.006;2023-06-22T01:27:00;101304.86;;;20.89;70.27
77086;BME280;66014;53.134;18.006;2023-06-22T01:29:32;101305.10;;;20.84;70.24
77086;BME280;66014;53.134;18.006;2023-06-22T01:32:00;101301.58;;;20.79;70.00
77086;BME280;66014;53.134;18.006;2023-06-22T01:34:31;101302.52;;;20.75;69.98
77086;BME280;66014;53.134;18.006;2023-06-22T01:36:59;101305.52;;;20.70;69.74
77086;BME280;66014;53.134;18.006;2023-06-22T01:39:27;101299.88;;;20.65;69.75
77086;BME280;66014;53.134;18.006;2023-06-22T01:41:54;101302.13;;;20.60;69.62
77086;BME280;66014;53.134;18.006;2023-06-22T01:44:24;101302.10;;;20.53;69.52
77086;BME280;66014;53.134;18.006;2023-06-22T01:46:53;101300.80;;;20.47;69.34
77086;BME280;66014;53.134;18.006;2023-06-22T01:49:27;101297.79;;;20.41;69.40
77086;BME280;66014;53.134;18.006;2023-06-22T01:51:59;101300.81;;;20.35;69.34
77086;BME280;66014;53.134;18.006;2023-06-22T01:54:30;101303.37;;;20.30;69.35
77086;BME280;66014;53.134;18.006;2023-06-22T01:57:03;101304.58;;;20.26;69.30
77086;BME280;66014;53.134;18.006;2023-06-22T01:59:38;101303.38;;;20.20;69.36
77086;BME280;66014;53.134;18.006;2023-06-22T02:02:28;101302.40;;;20.15;69.35
77086;BME280;66014;53.134;18.006;2023-06-22T02:05:08;101302.70;;;20.09;69.51
77086;BME280;66014;53.134;18.006;2023-06-22T02:10:36;101298.58;;;20.00;69.50
77086;BME280;66014;53.134;18.006;2023-06-22T02:13:09;101300.54;;;19.98;69.47
77086;BME280;66014;53.134;18.006;2023-06-22T02:15:45;101298.99;;;19.95;69.44
77086;BME280;66014;53.134;18.006;2023-06-22T02:18:20;101302.80;;;19.94;69.45
77086;BME280;66014;53.134;18.006;2023-06-22T02:20:47;101305.66;;;19.92;69.64
77086;BME280;66014;53.134;18.006;2023-06-22T02:23:13;101313.91;;;19.90;69.55
77086;BME280;66014;53.134;18.006;2023-06-22T02:25:41;101319.72;;;19.87;69.59
77086;BME280;66014;53.134;18.006;2023-06-22T02:28:10;101325.27;;;19.85;69.67
77086;BME280;66014;53.134;18.006;2023-06-22T02:30:37;101326.66;;;19.82;69.70
77086;BME280;66014;53.134;18.006;2023-06-22T02:33:10;101331.38;;;19.75;69.89
77086;BME280;66014;53.134;18.006;2023-06-22T02:35:38;101327.55;;;19.71;69.97
77086;BME280;66014;53.134;18.006;2023-06-22T02:38:16;101325.85;;;19.65;70.12
77086;BME280;66014;53.134;18.006;2023-06-22T02:40:50;101332.99;;;19.61;70.43
77086;BME280;66014;53.134;18.006;2023-06-22T02:43:29;101332.11;;;19.56;70.68
77086;BME280;66014;53.134;18.006;2023-06-22T02:46:07;101330.27;;;19.52;70.59
77086;BME280;66014;53.134;18.006;2023-06-22T02:48:33;101327.60;;;19.48;70.64
77086;BME280;66014;53.134;18.006;2023-06-22T02:51:01;101329.70;;;19.45;70.56
77086;BME280;66014;53.134;18.006;2023-06-22T02:53:29;101333.48;;;19.44;70.55
77086;BME280;66014;53.134;18.006;2023-06-22T02:55:55;101331.30;;;19.43;70.51
77086;BME280;66014;53.134;18.006;2023-06-22T02:58:22;101329.48;;;19.42;70.18
77086;BME280;66014;53.134;18.006;2023-06-22T03:00:48;101328.82;;;19.41;70.00
77086;BME280;66014;53.134;18.006;2023-06-22T03:03:19;101331.45;;;19.38;69.85
77086;BME280;66014;53.134;18.006;2023-06-22T03:05:46;101337.00;;;19.34;69.67
77086;BME280;66014;53.134;18.006;2023-06-22T03:08:13;101337.87;;;19.33;69.71
77086;BME280;66014;53.134;18.006;2023-06-22T03:10:40;101341.00;;;19.33;69.83
77086;BME280;66014;53.134;18.006;2023-06-22T03:13:09;101345.02;;;19.33;69.59
77086;BME280;66014;53.134;18.006;2023-06-22T03:15:35;101348.27;;;19.33;69.58
77086;BME280;66014;53.134;18.006;2023-06-22T03:18:03;101351.63;;;19.33;69.60
77086;BME280;66014;53.134;18.006;2023-06-22T03:20:30;101354.48;;;19.32;69.54
77086;BME280;66014;53.134;18.006;2023-06-22T03:23:00;101354.88;;;19.30;69.42
77086;BME280;66014;53.134;18.006;2023-06-22T03:25:35;101351.43;;;19.32;69.42
77086;BME280;66014;53.134;18.006;2023-06-22T03:28:03;101351.67;;;19.33;69.41
77086;BME280;66014;53.134;18.006;2023-06-22T03:30:29;101352.33;;;19.33;69.51
77086;BME280;66014;53.134;18.006;2023-06-22T03:32:56;101356.35;;;19.35;69.64
77086;BME280;66014;53.134;18.006;2023-06-22T03:35:22;101357.62;;;19.39;69.50
77086;BME280;66014;53.134;18.006;2023-06-22T03:37:49;101360.71;;;19.41;69.62
77086;BME280;66014;53.134;18.006;2023-06-22T03:40:15;101364.59;;;19.45;69.63
77086;BME280;66014;53.134;18.006;2023-06-22T03:42:42;101365.79;;;19.53;69.48
77086;BME280;66014;53.134;18.006;2023-06-22T03:45:09;101371.85;;;19.59;69.35
77086;BME280;66014;53.134;18.006;2023-06-22T03:47:36;101378.80;;;19.64;69.14
77086;BME280;66014;53.134;18.006;2023-06-22T03:50:02;101382.41;;;19.65;69.05
77086;BME280;66014;53.134;18.006;2023-06-22T03:52:32;101391.48;;;19.67;68.99
77086;BME280;66014;53.134;18.006;2023-06-22T03:54:58;101394.19;;;19.68;69.08
77086;BME280;66014;53.134;18.006;2023-06-22T03:57:25;101390.40;;;19.73;69.15
77086;BME280;66014;53.134;18.006;2023-06-22T03:59:51;101386.84;;;19.83;68.93
77086;BME280;66014;53.134;18.006;2023-06-22T04:02:18;101380.66;;;19.92;68.55
77086;BME280;66014;53.134;18.006;2023-06-22T04:04:44;101387.65;;;20.03;68.46
77086;BME280;66014;53.134;18.006;2023-06-22T04:07:11;101386.34;;;20.14;68.25
77086;BME280;66014;53.134;18.006;2023-06-22T04:09:37;101389.98;;;20.23;68.04
77086;BME280;66014;53.134;18.006;2023-06-22T04:12:04;101394.13;;;20.29;67.74
77086;BME280;66014;53.134;18.006;2023-06-22T04:14:31;101393.70;;;20.35;67.69
77086;BME280;66014;53.134;18.006;2023-06-22T04:16:58;101392.64;;;20.38;67.39
77086;BME280;66014;53.134;18.006;2023-06-22T04:19:25;101393.77;;;20.41;67.31
77086;BME280;66014;53.134;18.006;2023-06-22T04:21:51;101396.84;;;20.38;66.93
77086;BME280;66014;53.134;18.006;2023-06-22T04:24:18;101396.66;;;20.32;66.93
77086;BME280;66014;53.134;18.006;2023-06-22T04:26:45;101397.80;;;20.26;67.13
77086;BME280;66014;53.134;18.006;2023-06-22T04:29:13;101396.68;;;20.21;67.11
77086;BME280;66014;53.134;18.006;2023-06-22T04:31:40;101391.31;;;20.19;67.12
77086;BME280;66014;53.134;18.006;2023-06-22T04:34:08;101385.80;;;20.18;67.12
77086;BME280;66014;53.134;18.006;2023-06-22T04:36:39;101384.53;;;20.17;67.12
77086;BME280;66014;53.134;18.006;2023-06-22T04:39:07;101386.70;;;20.15;67.14
77086;BME280;66014;53.134;18.006;2023-06-22T04:41:36;101386.87;;;20.15;67.26
77086;BME280;66014;53.134;18.006;2023-06-22T04:44:09;101386.11;;;20.14;67.12
77086;BME280;66014;53.134;18.006;2023-06-22T04:46:39;101392.39;;;20.11;67.11
77086;BME280;66014;53.134;18.006;2023-06-22T04:49:10;101394.15;;;20.06;67.25
77086;BME280;66014;53.134;18.006;2023-06-22T04:51:43;101398.23;;;20.06;67.30
77086;BME280;66014;53.134;18.006;2023-06-22T04:54:25;101396.19;;;20.09;67.21
77086;BME280;66014;53.134;18.006;2023-06-22T04:56:52;101400.73;;;20.16;67.21
77086;BME280;66014;53.134;18.006;2023-06-22T04:59:29;101401.41;;;20.22;66.98
77086;BME280;66014;53.134;18.006;2023-06-22T05:02:00;101405.52;;;20.27;67.02
77086;BME280;66014;53.134;18.006;2023-06-22T05:04:29;101406.58;;;20.33;66.98
77086;BME280;66014;53.134;18.006;2023-06-22T05:07:00;101407.52;;;20.40;66.86
77086;BME280;66014;53.134;18.006;2023-06-22T05:09:27;101405.42;;;20.46;66.57
77086;BME280;66014;53.134;18.006;2023-06-22T05:11:54;101411.32;;;20.46;66.44
77086;BME280;66014;53.134;18.006;2023-06-22T05:14:23;101417.67;;;20.43;66.49
77086;BME280;66014;53.134;18.006;2023-06-22T05:16:49;101420.96;;;20.43;66.64
77086;BME280;66014;53.134;18.006;2023-06-22T05:19:18;101418.15;;;20.46;66.40
77086;BME280;66014;53.134;18.006;2023-06-22T05:21:47;101419.08;;;20.49;66.36
77086;BME280;66014;53.134;18.006;2023-06-22T05:24:14;101421.05;;;20.52;66.31
77086;BME280;66014;53.134;18.006;2023-06-22T05:26:40;101430.02;;;20.56;66.11
77086;BME280;66014;53.134;18.006;2023-06-22T05:29:07;101428.86;;;20.57;66.08
77086;BME280;66014;53.134;18.006;2023-06-22T05:31:35;101429.89;;;20.58;65.99
77086;BME280;66014;53.134;18.006;2023-06-22T05:34:05;101434.05;;;20.63;65.99
77086;BME280;66014;53.134;18.006;2023-06-22T05:36:33;101438.13;;;20.71;65.88
77086;BME280;66014;53.134;18.006;2023-06-22T05:39:10;101435.84;;;20.78;65.59
77086;BME280;66014;53.134;18.006;2023-06-22T05:41:38;101433.43;;;20.82;65.51
77086;BME280;66014;53.134;18.006;2023-06-22T05:44:05;101442.98;;;20.84;65.37
77086;BME280;66014;53.134;18.006;2023-06-22T05:46:32;101434.73;;;20.89;65.24
77086;BME280;66014;53.134;18.006;2023-06-22T05:48:59;101431.28;;;20.94;65.07
77086;BME280;66014;53.134;18.006;2023-06-22T05:51:26;101426.74;;;21.00;64.87
77086;BME280;66014;53.134;18.006;2023-06-22T05:54:01;101426.77;;;21.05;64.74
77086;BME280;66014;53.134;18.006;2023-06-22T05:56:28;101424.70;;;21.09;64.48
77086;BME280;66014;53.134;18.006;2023-06-22T05:58:54;101427.23;;;21.13;64.19
77086;BME280;66014;53.134;18.006;2023-06-22T06:01:21;101422.93;;;21.16;64.00
77086;BME280;66014;53.134;18.006;2023-06-22T06:03:47;101427.91;;;21.25;63.92
77086;BME280;66014;53.134;18.006;2023-06-22T06:06:16;101425.13;;;21.40;63.55
77086;BME280;66014;53.134;18.006;2023-06-22T06:08:43;101421.25;;;21.64;63.26
77086;BME280;66014;53.134;18.006;2023-06-22T06:11:09;101425.52;;;21.95;62.52
77086;BME280;66014;53.134;18.006;2023-06-22T06:13:36;101428.66;;;22.34;61.78
77086;BME280;66014;53.134;18.006;2023-06-22T06:16:02;101421.49;;;22.82;61.10
77086;BME280;66014;53.134;18.006;2023-06-22T06:18:29;101415.06;;;23.59;59.47
77086;BME280;66014;53.134;18.006;2023-06-22T06:20:58;101414.14;;;24.76;57.37
77086;BME280;66014;53.134;18.006;2023-06-22T06:23:25;101416.66;;;25.75;55.27
77086;BME280;66014;53.134;18.006;2023-06-22T06:25:52;101426.17;;;26.65;53.62
77086;BME280;66014;53.134;18.006;2023-06-22T06:28:18;101434.27;;;27.51;52.45
77086;BME280;66014;53.134;18.006;2023-06-22T06:30:45;101436.58;;;28.39;50.92
77086;BME280;66014;53.134;18.006;2023-06-22T06:33:13;101434.41;;;29.23;49.24
77086;BME280;66014;53.134;18.006;2023-06-22T06:35:41;101437.27;;;30.12;47.54
77086;BME280;66014;53.134;18.006;2023-06-22T06:38:08;101435.35;;;30.89;45.80
77086;BME280;66014;53.134;18.006;2023-06-22T06:40:34;101429.66;;;31.57;44.43
77086;BME280;66014;53.134;18.006;2023-06-22T06:43:01;101428.57;;;32.25;43.06
77086;BME280;66014;53.134;18.006;2023-06-22T06:45:27;101422.61;;;32.82;41.07
77086;BME280;66014;53.134;18.006;2023-06-22T06:47:55;101424.27;;;33.17;39.43
77086;BME280;66014;53.134;18.006;2023-06-22T06:50:22;101424.09;;;33.51;38.61
77086;BME280;66014;53.134;18.006;2023-06-22T06:52:50;101418.04;;;33.93;37.66
77086;BME280;66014;53.134;18.006;2023-06-22T06:55:17;101418.37;;;34.33;36.39
77086;BME280;66014;53.134;18.006;2023-06-22T06:57:44;101412.84;;;34.75;35.50
77086;BME280;66014;53.134;18.006;2023-06-22T07:00:12;101414.89;;;35.36;34.65
77086;BME280;66014;53.134;18.006;2023-06-22T07:02:42;101415.52;;;36.00;33.16
77086;BME280;66014;53.134;18.006;2023-06-22T07:05:12;101418.38;;;36.37;31.49
77086;BME280;66014;53.134;18.006;2023-06-22T07:07:39;101413.05;;;36.68;31.61
77086;BME280;66014;53.134;18.006;2023-06-22T07:10:06;101415.69;;;37.33;30.72
77086;BME280;66014;53.134;18.006;2023-06-22T07:12:33;101416.52;;;37.99;29.53
77086;BME280;66014;53.134;18.006;2023-06-22T07:15:07;101413.74;;;38.25;27.87
77086;BME280;66014;53.134;18.006;2023-06-22T07:17:35;101416.38;;;38.25;27.93
77086;BME280;66014;53.134;18.006;2023-06-22T07:20:03;101421.64;;;38.61;27.35
77086;BME280;66014;53.134;18.006;2023-06-22T07:22:35;101425.02;;;39.11;26.65
77086;BME280;66014;53.134;18.006;2023-06-22T07:25:02;101426.70;;;39.51;26.15
77086;BME280;66014;53.134;18.006;2023-06-22T07:27:37;101423.89;;;39.90;26.00
77086;BME280;66014;53.134;18.006;2023-06-22T07:30:04;101424.46;;;40.16;24.77
77086;BME280;66014;53.134;18.006;2023-06-22T07:32:31;101429.50;;;40.23;24.33
77086;BME280;66014;53.134;18.006;2023-06-22T07:34:57;101430.58;;;40.36;24.24
77086;BME280;66014;53.134;18.006;2023-06-22T07:37:24;101429.66;;;40.46;24.01
77086;BME280;66014;53.134;18.006;2023-06-22T07:39:51;101428.45;;;40.76;23.64
77086;BME280;66014;53.134;18.006;2023-06-22T07:42:20;101432.06;;;41.08;23.69
77086;BME280;66014;53.134;18.006;2023-06-22T07:44:46;101433.38;;;41.36;22.81
77086;BME280;66014;53.134;18.006;2023-06-22T07:47:13;101434.56;;;41.74;22.29
77086;BME280;66014;53.134;18.006;2023-06-22T07:49:39;101434.86;;;42.15;22.03
77086;BME280;66014;53.134;18.006;2023-06-22T07:52:06;101430.47;;;42.48;21.28
77086;BME280;66014;53.134;18.006;2023-06-22T07:54:33;101430.17;;;42.80;20.91
77086;BME280;66014;53.134;18.006;2023-06-22T07:56:59;101426.80;;;43.18;20.83
77086;BME280;66014;53.134;18.006;2023-06-22T07:59:26;101429.02;;;43.71;20.18
77086;BME280;66014;53.134;18.006;2023-06-22T08:01:55;101431.48;;;44.00;19.06
77086;BME280;66014;53.134;18.006;2023-06-22T08:04:22;101434.55;;;44.21;19.27
77086;BME280;66014;53.134;18.006;2023-06-22T08:06:48;101432.84;;;44.48;19.09
77086;BME280;66014;53.134;18.006;2023-06-22T08:09:19;101434.44;;;44.65;18.57
77086;BME280;66014;53.134;18.006;2023-06-22T08:11:46;101434.30;;;44.68;18.33
77086;BME280;66014;53.134;18.006;2023-06-22T08:14:12;101437.81;;;44.72;17.96
77086;BME280;66014;53.134;18.006;2023-06-22T08:16:39;101437.33;;;44.73;17.90
77086;BME280;66014;53.134;18.006;2023-06-22T08:19:05;101440.63;;;44.93;17.71
77086;BME280;66014;53.134;18.006;2023-06-22T08:21:34;101447.64;;;45.37;17.25
77086;BME280;66014;53.134;18.006;2023-06-22T08:24:01;101446.21;;;45.67;16.90
77086;BME280;66014;53.134;18.006;2023-06-22T08:26:28;101434.52;;;45.97;16.93
77086;BME280;66014;53.134;18.006;2023-06-22T08:28:55;101433.52;;;46.41;16.67
77086;BME280;66014;53.134;18.006;2023-06-22T08:31:21;101429.95;;;46.77;16.25
77086;BME280;66014;53.134;18.006;2023-06-22T08:33:48;101431.60;;;47.23;15.72
77086;BME280;66014;53.134;18.006;2023-06-22T08:36:14;101433.37;;;47.64;15.18
77086;BME280;66014;53.134;18.006;2023-06-22T08:38:42;101435.77;;;47.89;14.99
77086;BME280;66014;53.134;18.006;2023-06-22T08:41:09;101434.91;;;48.30;14.58
77086;BME280;66014;53.134;18.006;2023-06-22T08:43:35;101435.04;;;48.47;14.14
77086;BME280;66014;53.134;18.006;2023-06-22T08:46:02;101431.34;;;48.58;14.22
77086;BME280;66014;53.134;18.006;2023-06-22T08:48:29;101424.68;;;48.90;14.16
77086;BME280;66014;53.134;18.006;2023-06-22T08:50:55;101425.37;;;49.20;13.86
77086;BME280;66014;53.134;18.006;2023-06-22T08:53:22;101420.00;;;49.44;13.64
77086;BME280;66014;53.134;18.006;2023-06-22T08:55:48;101420.92;;;49.41;13.37
77086;BME280;66014;53.134;18.006;2023-06-22T08:58:17;101416.46;;;49.20;13.48
77086;BME280;66014;53.134;18.006;2023-06-22T09:00:44;101415.02;;;49.20;13.61
77086;BME280;66014;53.134;18.006;2023-06-22T09:03:11;101418.80;;;49.21;13.19
77086;BME280;66014;53.134;18.006;2023-06-22T09:05:37;101416.02;;;49.07;13.10
77086;BME280;66014;53.134;18.006;2023-06-22T09:08:04;101413.27;;;49.17;13.09
77086;BME280;66014;53.134;18.006;2023-06-22T09:10:31;101413.60;;;49.32;12.94
77086;BME280;66014;53.134;18.006;2023-06-22T09:12:57;101412.14;;;49.33;13.10
77086;BME280;66014;53.134;18.006;2023-06-22T09:15:24;101408.17;;;49.39;13.07
77086;BME280;66014;53.134;18.006;2023-06-22T09:17:51;101410.14;;;49.49;12.74
77086;BME280;66014;53.134;18.006;2023-06-22T09:20:20;101403.95;;;49.57;12.27
77086;BME280;66014;53.134;18.006;2023-06-22T09:22:47;101395.27;;;49.52;11.70
77086;BME280;66014;53.134;18.006;2023-06-22T09:25:13;101395.89;;;49.53;11.85
77086;BME280;66014;53.134;18.006;2023-06-22T09:27:40;101391.13;;;49.54;11.82
77086;BME280;66014;53.134;18.006;2023-06-22T09:30:07;101383.45;;;49.52;11.52
77086;BME280;66014;53.134;18.006;2023-06-22T09:32:33;101385.50;;;49.57;11.72
77086;BME280;66014;53.134;18.006;2023-06-22T09:35:04;101385.08;;;49.63;11.80
77086;BME280;66014;53.134;18.006;2023-06-22T09:37:32;101374.45;;;49.77;11.40
77086;BME280;66014;53.134;18.006;2023-06-22T09:39:58;101377.80;;;49.88;11.48
77086;BME280;66014;53.134;18.006;2023-06-22T09:42:25;101378.85;;;50.10;11.23
77086;BME280;66014;53.134;18.006;2023-06-22T09:44:51;101386.02;;;50.12;11.32
77086;BME280;66014;53.134;18.006;2023-06-22T09:47:18;101379.88;;;50.27;11.36
77086;BME280;66014;53.134;18.006;2023-06-22T09:49:44;101375.11;;;50.56;11.02
77086;BME280;66014;53.134;18.006;2023-06-22T09:52:12;101373.77;;;50.64;10.80
77086;BME280;66014;53.134;18.006;2023-06-22T09:54:38;101368.92;;;50.54;10.53
77086;BME280;66014;53.134;18.006;2023-06-22T09:57:05;101373.04;;;50.55;10.41
77086;BME280;66014;53.134;18.006;2023-06-22T09:59:31;101371.01;;;50.45;10.54
77086;BME280;66014;53.134;18.006;2023-06-22T10:01:58;101369.77;;;50.51;10.56
77086;BME280;66014;53.134;18.006;2023-06-22T10:04:24;101371.63;;;50.75;10.71
77086;BME280;66014;53.134;18.006;2023-06-22T10:06:52;101376.77;;;51.04;10.58
77086;BME280;66014;53.134;18.006;2023-06-22T10:09:18;101379.96;;;51.39;10.46
77086;BME280;66014;53.134;18.006;2023-06-22T10:11:45;101374.39;;;51.72;10.21
77086;BME280;66014;53.134;18.006;2023-06-22T10:14:11;101368.14;;;51.69;9.73
77086;BME280;66014;53.134;18.006;2023-06-22T10:16:38;101371.11;;;51.66;10.03
77086;BME280;66014;53.134;18.006;2023-06-22T10:19:04;101367.47;;;51.55;9.91
77086;BME280;66014;53.134;18.006;2023-06-22T10:21:31;101367.42;;;51.79;10.00
77086;BME280;66014;53.134;18.006;2023-06-22T10:23:59;101355.83;;;52.00;9.87
77086;BME280;66014;53.134;18.006;2023-06-22T10:26:32;101354.09;;;52.01;9.77
77086;BME280;66014;53.134;18.006;2023-06-22T10:29:00;101350.27;;;51.95;9.91
77086;BME280;66014;53.134;18.006;2023-06-22T10:31:27;101348.09;;;51.98;9.83
77086;BME280;66014;53.134;18.006;2023-06-22T10:33:54;101353.27;;;51.67;9.93
77086;BME280;66014;53.134;18.006;2023-06-22T10:36:21;101350.02;;;51.39;9.96
77086;BME280;66014;53.134;18.006;2023-06-22T10:38:48;101351.67;;;51.46;10.39
77086;BME280;66014;53.134;18.006;2023-06-22T10:41:15;101356.70;;;51.86;9.87
77086;BME280;66014;53.134;18.006;2023-06-22T10:43:43;101357.30;;;52.02;9.94
77086;BME280;66014;53.134;18.006;2023-06-22T10:46:09;101350.80;;;52.06;9.67
77086;BME280;66014;53.134;18.006;2023-06-22T10:48:36;101351.35;;;52.14;9.75
77086;BME280;66014;53.134;18.006;2023-06-22T10:51:02;101343.11;;;52.35;9.27
77086;BME280;66014;53.134;18.006;2023-06-22T10:53:29;101336.30;;;52.50;9.71
77086;BME280;66014;53.134;18.006;2023-06-22T10:55:55;101335.59;;;52.67;9.39
77086;BME280;66014;53.134;18.006;2023-06-22T10:58:21;101332.16;;;52.83;9.66
77086;BME280;66014;53.134;18.006;2023-06-22T11:00:48;101328.50;;;52.98;9.50
77086;BME280;66014;53.134;18.006;2023-06-22T11:03:14;101333.90;;;52.91;9.11
77086;BME280;66014;53.134;18.006;2023-06-22T11:05:41;101331.27;;;52.86;9.24
77086;BME280;66014;53.134;18.006;2023-06-22T11:08:08;101332.33;;;52.74;9.19
77086;BME280;66014;53.134;18.006;2023-06-22T11:10:34;101333.81;;;52.79;8.99
77086;BME280;66014;53.134;18.006;2023-06-22T11:13:01;101332.55;;;52.60;8.98
77086;BME280;66014;53.134;18.006;2023-06-22T11:15:29;101332.90;;;52.62;9.40
77086;BME280;66014;53.134;18.006;2023-06-22T11:17:55;101331.86;;;52.64;8.89
77086;BME280;66014;53.134;18.006;2023-06-22T11:20:22;101331.52;;;52.47;9.08
77086;BME280;66014;53.134;18.006;2023-06-22T11:22:48;101334.08;;;52.29;8.88
77086;BME280;66014;53.134;18.006;2023-06-22T11:25:15;101326.65;;;51.94;9.17
77086;BME280;66014;53.134;18.006;2023-06-22T11:27:41;101323.73;;;51.94;9.13
77086;BME280;66014;53.134;18.006;2023-06-22T11:30:08;101318.58;;;51.88;8.79
77086;BME280;66014;53.134;18.006;2023-06-22T11:32:35;101316.89;;;51.26;9.11
77086;BME280;66014;53.134;18.006;2023-06-22T11:35:02;101315.39;;;51.17;9.32
77086;BME280;66014;53.134;18.006;2023-06-22T11:37:29;101319.05;;;51.12;9.37
77086;BME280;66014;53.134;18.006;2023-06-22T11:39:56;101318.27;;;51.11;9.21
77086;BME280;66014;53.134;18.006;2023-06-22T11:42:22;101314.83;;;51.05;9.44
77086;BME280;66014;53.134;18.006;2023-06-22T11:44:49;101315.25;;;50.92;9.30
77086;BME280;66014;53.134;18.006;2023-06-22T11:47:16;101315.31;;;50.67;9.45
77086;BME280;66014;53.134;18.006;2023-06-22T11:49:43;101314.52;;;50.43;9.75
77086;BME280;66014;53.134;18.006;2023-06-22T11:52:09;101310.77;;;50.39;9.68
77086;BME280;66014;53.134;18.006;2023-06-22T11:54:36;101308.65;;;50.17;9.67
77086;BME280;66014;53.134;18.006;2023-06-22T11:57:02;101302.30;;;49.88;9.79
77086;BME280;66014;53.134;18.006;2023-06-22T11:59:29;101301.86;;;49.74;9.63
77086;BME280;66014;53.134;18.006;2023-06-22T12:01:57;101300.70;;;49.70;9.71
77086;BME280;66014;53.134;18.006;2023-06-22T12:04:24;101298.85;;;49.80;9.67
77086;BME280;66014;53.134;18.006;2023-06-22T12:06:51;101295.81;;;49.90;9.79
77086;BME280;66014;53.134;18.006;2023-06-22T12:09:17;101288.60;;;50.00;9.89
77086;BME280;66014;53.134;18.006;2023-06-22T12:11:44;101282.70;;;49.95;9.67
77086;BME280;66014;53.134;18.006;2023-06-22T12:14:10;101279.44;;;49.80;9.71
77086;BME280;66014;53.134;18.006;2023-06-22T12:16:37;101276.06;;;49.89;9.94
77086;BME280;66014;53.134;18.006;2023-06-22T12:19:04;101272.83;;;49.99;9.86
77086;BME280;66014;53.134;18.006;2023-06-22T12:21:30;101270.80;;;49.84;9.83
77086;BME280;66014;53.134;18.006;2023-06-22T12:23:57;101272.48;;;49.40;10.03
77086;BME280;66014;53.134;18.006;2023-06-22T12:26:23;101275.04;;;48.77;10.34
77086;BME280;66014;53.134;18.006;2023-06-22T12:28:50;101270.27;;;48.43;10.57
77086;BME280;66014;53.134;18.006;2023-06-22T12:31:17;101267.82;;;48.20;10.70
77086;BME280;66014;53.134;18.006;2023-06-22T12:33:43;101265.83;;;47.85;10.90
77086;BME280;66014;53.134;18.006;2023-06-22T12:36:10;101266.86;;;47.29;11.10
77086;BME280;66014;53.134;18.006;2023-06-22T12:38:36;101259.17;;;46.07;11.80
77086;BME280;66014;53.134;18.006;2023-06-22T12:41:03;101255.36;;;44.78;12.70
77086;BME280;66014;53.134;18.006;2023-06-22T12:43:32;101252.41;;;43.48;13.43
77086;BME280;66014;53.134;18.006;2023-06-22T12:45:59;101249.29;;;42.30;14.37
77086;BME280;66014;53.134;18.006;2023-06-22T12:48:55;101243.70;;;41.56;14.97
77086;BME280;66014;53.134;18.006;2023-06-22T12:51:30;101244.95;;;40.94;15.71
77086;BME280;66014;53.134;18.006;2023-06-22T12:53:56;101245.80;;;40.42;16.38